Time;durP1;ratioP1;P1;durP2;ratioP2;P2;SDS_P1;SDS_P2;PMS_P1;PMS_P2;Temp;Humidity;BMP_temperature;BMP_pressure;BME280_temperature;BME280_humidity;BME280_pressure;Samples;Min_cycle;Max_cycle;Signal;HPM_P1;HPM_P2
2023/04/10 00:02:15;;;;;;;;;14.00;14.00;;;;;-147.17;100.00;31046.38;4982822;28;51061;-57
2023/04/10 00:04:40;;;;;;;;;15.75;14.00;;;;;-147.17;100.00;30533.19;4981039;28;51993;-58
2023/04/10 00:07:05;;;;;;;;;16.50;15.50;;;;;-147.17;100.00;30732.97;4989630;28;50919;-57
2023/04/10 00:09:31;;;;;;;;;16.75;16.25;;;;;-147.17;100.00;30049.41;4990740;28;51211;-56
2023/04/10 00:11:56;;;;;;;;;14.25;13.25;;;;;-147.17;100.00;29454.09;4982983;28;51346;-56
2023/04/10 00:14:23;;;;;;;;;16.75;16.50;;;;;-147.17;100.00;29226.97;4989763;28;51731;-61
2023/04/10 00:16:49;;;;;;;;;15.00;13.50;;;;;-147.17;100.00;28529.97;4984867;28;51181;-57
2023/04/10 00:19:15;;;;;;;;;19.00;18.25;;;;;-147.17;100.00;28412.53;4988681;28;51175;-57
2023/04/10 00:21:40;;;;;;;;;17.25;17.00;;;;;-147.17;100.00;27774.41;4990137;28;51094;-57
2023/04/10 00:24:07;;;;;;;;;15.50;15.50;;;;;-147.17;100.00;27600.19;4993007;28;52106;-57
2023/04/10 00:26:33;;;;;;;;;19.00;18.50;;;;;-147.17;100.00;27300.75;4991463;28;51333;-56
2023/04/10 00:28:59;;;;;;;;;16.00;15.25;;;;;-147.17;100.00;27007.22;4990878;28;51191;-57
2023/04/10 00:31:24;;;;;;;;;15.75;15.75;;;;;-147.17;100.00;26678.47;4980109;28;50970;-57
2023/04/10 00:33:50;;;;;;;;;18.50;18.25;;;;;-147.17;100.00;24925.63;4989295;28;51470;-58
2023/04/10 00:36:16;;;;;;;;;13.75;12.75;;;;;-147.17;100.00;24925.63;4990387;28;51123;-57
2023/04/10 00:38:42;;;;;;;;;17.50;17.00;;;;;-147.17;100.00;23924.38;4992458;28;50914;-58
2023/04/10 00:41:07;;;;;;;;;18.50;17.75;;;;;-147.17;100.00;23924.38;4990748;28;51276;-58
2023/04/10 00:43:32;;;;;;;;;16.00;15.50;;;;;-147.17;100.00;23423.81;4989661;28;52142;-57
2023/04/10 00:46:00;;;;;;;;;19.50;17.00;;;;;-147.17;100.00;23423.81;4979994;28;50946;-57
2023/04/10 00:48:25;;;;;;;;;18.50;17.25;;;;;-147.17;100.00;23674.09;4985776;28;51021;-57
2023/04/10 00:50:51;;;;;;;;;18.00;18.00;;;;;-147.17;100.00;24174.66;4986761;28;51517;-57
2023/04/10 00:53:16;;;;;;;;;18.50;17.75;;;;;-147.17;100.00;23674.09;4979315;28;51718;-56
2023/04/10 00:55:43;;;;;;;;;20.00;20.00;;;;;-147.17;100.00;23423.81;4996216;28;51163;-58
2023/04/10 00:58:13;;;;;;;;;18.00;16.75;;;;;-147.17;100.00;23173.59;4989737;28;51353;-55
2023/04/10 01:00:38;;;;;;;;;21.75;19.25;;;;;-147.17;100.00;23674.09;4982217;28;50980;-56
2023/04/10 01:03:04;;;;;;;;;20.00;19.50;;;;;-147.17;100.00;23173.59;4985823;28;51865;-58
2023/04/10 01:05:38;;;;;;;;;11.25;10.25;;;;;-147.17;100.00;22673.13;4989714;28;50998;-57
2023/04/10 01:08:35;;;;;;;;;16.25;16.00;;;;;-147.17;100.00;22673.13;4981888;28;51296;-58
2023/04/10 01:11:08;;;;;;;;;17.00;16.50;;;;;-147.17;100.00;22673.13;4989894;28;51445;-56
2023/04/10 01:13:42;;;;;;;;;16.50;16.50;;;;;-147.17;100.00;22673.13;4983876;28;52022;-56
2023/04/10 01:16:30;;;;;;;;;16.00;16.00;;;;;-147.17;100.00;22923.34;4988490;28;51322;-58
2023/04/10 01:19:06;;;;;;;;;18.00;17.75;;;;;-147.17;100.00;22673.13;4983498;28;50968;-57
2023/04/10 01:21:35;;;;;;;;;19.75;19.00;;;;;-147.17;100.00;23173.59;4989834;28;51387;-57
2023/04/10 01:24:08;;;;;;;;;18.50;17.25;;;;;-147.17;100.00;22673.13;4983478;28;52021;-57
2023/04/10 01:27:15;;;;;;;;;15.25;14.50;;;;;-147.17;100.00;21922.59;4980566;28;52742;-57
2023/04/10 01:29:46;;;;;;;;;16.50;16.50;;;;;-147.17;100.00;20922.09;4948613;28;51195;-56
2023/04/10 01:32:16;;;;;;;;;21.50;20.00;;;;;-147.17;100.00;21422.31;4979302;28;51388;-56
2023/04/10 01:34:49;;;;;;;;;18.25;17.00;;;;;-147.17;100.00;21172.19;4987623;28;51017;-56
2023/04/10 01:37:20;;;;;;;;;16.25;15.50;;;;;-147.17;100.00;20672.00;4978677;28;51225;-56
2023/04/10 01:39:53;;;;;;;;;16.25;15.75;;;;;-147.17;100.00;20421.94;4986018;28;51232;-57
2023/04/10 01:42:21;;;;;;;;;18.00;15.50;;;;;-147.17;100.00;20421.94;4994654;28;51171;-57
2023/04/10 01:44:49;;;;;;;;;15.00;14.25;;;;;-147.17;100.00;19921.84;4994051;28;53180;-57
2023/04/10 01:47:17;;;;;;;;;13.75;13.75;;;;;-147.17;100.00;20171.88;4988573;28;51105;-57
2023/04/10 01:49:46;;;;;;;;;15.50;15.50;;;;;-147.17;100.00;19421.84;4994520;28;51161;-56
2023/04/10 01:52:13;;;;;;;;;17.50;17.25;;;;;-147.17;100.00;18172.06;4992804;28;51355;-57
2023/04/10 01:54:38;;;;;;;;;15.50;15.00;;;;;-147.17;100.00;18671.91;4981805;28;52801;-56
2023/04/10 01:57:04;;;;;;;;;16.75;16.75;;;;;-147.17;100.00;16423.03;4999609;28;51105;-56
2023/04/10 01:59:30;;;;;;;;;15.25;15.25;;;;;-147.17;100.00;17672.25;4995463;28;50922;-57
2023/04/10 02:02:00;;;;;;;;;14.00;13.50;;;;;-147.17;100.00;17922.16;4992860;28;51468;-56
2023/04/10 02:04:26;;;;;;;;;16.00;16.00;;;;;-147.17;100.00;16672.84;4992583;28;51074;-55
2023/04/10 02:07:06;;;;;;;;;15.00;14.25;;;;;-147.17;100.00;16922.66;4988740;28;51145;-56
2023/04/10 02:09:31;;;;;;;;;14.75;14.75;;;;;-147.17;100.00;16672.84;4994540;28;51139;-56
2023/04/10 02:12:11;;;;;;;;;16.00;16.00;;;;;-147.17;100.00;16922.66;4991041;28;51243;-57
2023/04/10 02:14:41;;;;;;;;;16.50;16.50;;;;;-147.17;100.00;15673.69;4980553;28;52303;-56
2023/04/10 02:17:10;;;;;;;;;17.75;17.75;;;;;-147.17;100.00;16423.03;4992690;28;51316;-56
2023/04/10 02:19:37;;;;;;;;;13.00;11.75;;;;;-147.17;100.00;16423.03;5001379;28;50947;-57
2023/04/10 02:22:04;;;;;;;;;16.00;15.00;;;;;-147.17;100.00;16672.84;5010173;28;51160;-57
2023/04/10 02:24:31;;;;;;;;;14.75;14.75;;;;;-147.17;100.00;16672.84;5006337;28;51318;-56
2023/04/10 02:26:56;;;;;;;;;13.25;13.25;;;;;-147.17;100.00;15423.94;4986867;28;51013;-57
2023/04/10 02:29:22;;;;;;;;;12.75;12.75;;;;;-147.17;100.00;15423.94;4994884;28;51082;-56
2023/04/10 02:31:47;;;;;;;;;15.25;15.00;;;;;-147.17;100.00;14175.44;4992477;28;51121;-56
2023/04/10 02:34:13;;;;;;;;;15.25;15.25;;;;;-147.17;100.00;13925.81;4992822;28;51839;-57
2023/04/10 02:36:38;;;;;;;;;15.25;15.00;;;;;-147.17;100.00;14924.50;4989848;28;51244;-58
2023/04/10 02:39:05;;;;;;;;;17.50;16.00;;;;;-147.17;100.00;13925.81;4994479;28;51693;-58
2023/04/10 02:41:31;;;;;;;;;17.75;16.75;;;;;-147.17;100.00;13676.16;4993429;28;50975;-57
2023/04/10 02:43:56;;;;;;;;;17.75;15.25;;;;;-147.17;100.00;13426.53;4994805;28;51841;-58
2023/04/10 02:46:22;;;;;;;;;16.75;16.50;;;;;-147.17;100.00;13176.94;4990364;28;51044;-58
2023/04/10 02:48:47;;;;;;;;;17.50;17.50;;;;;-147.17;100.00;12428.22;4992686;28;50962;-58
2023/04/10 02:51:13;;;;;;;;;15.50;15.50;;;;;-147.17;100.00;10432.38;4994083;28;51152;-57
2023/04/10 02:53:38;;;;;;;;;15.00;15.00;;;;;-147.17;100.00;10681.81;5013244;28;51258;-55
2023/04/10 02:56:06;;;;;;;;;13.25;13.25;;;;;-147.17;100.00;11180.69;4986134;28;51177;-57
2023/04/10 02:58:32;;;;;;;;;16.75;16.50;;;;;-147.17;100.00;10931.25;4990382;28;50957;-57
2023/04/10 03:00:58;;;;;;;;;16.00;15.25;;;;;-147.17;100.00;10931.25;4990871;28;51177;-56
2023/04/10 03:03:24;;;;;;;;;14.25;11.75;;;;;-147.17;100.00;10432.38;5008338;28;51813;-57
2023/04/10 03:05:49;;;;;;;;;15.50;15.50;;;;;-147.17;100.00;10931.25;4998151;28;51103;-57
2023/04/10 03:08:16;;;;;;;;;17.75;17.75;;;;;-147.17;100.00;11180.69;4994591;28;51251;-57
2023/04/10 03:10:44;;;;;;;;;13.00;12.75;;;;;-147.17;100.00;10931.25;4990823;28;51282;-56
2023/04/10 03:13:09;;;;;;;;;17.50;16.50;;;;;-147.17;100.00;9933.56;4987285;28;51547;-56
2023/04/10 03:15:35;;;;;;;;;15.25;13.50;;;;;-147.17;100.00;9684.19;4993284;28;51044;-58
2023/04/10 03:18:01;;;;;;;;;16.50;14.00;;;;;-147.17;100.00;9684.19;4991192;28;51016;-57
2023/04/10 03:20:26;;;;;;;;;16.00;16.00;;;;;-147.17;100.00;9434.84;5003886;28;51410;-57
2023/04/10 03:22:52;;;;;;;;;18.25;16.00;;;;;-147.17;100.00;9434.84;4993630;28;51214;-57
2023/04/10 03:25:17;;;;;;;;;15.25;15.00;;;;;-147.17;100.00;10182.97;4989337;28;51181;-58
2023/04/10 03:27:42;;;;;;;;;16.25;16.25;;;;;-147.17;100.00;9933.56;4991895;28;51135;-58
2023/04/10 03:30:08;;;;;;;;;15.75;14.75;;;;;-147.17;100.00;9185.47;4993216;28;51219;-56
2023/04/10 03:32:34;;;;;;;;;14.75;14.75;;;;;-147.17;100.00;9684.19;4990163;28;51996;-57
2023/04/10 03:34:59;;;;;;;;;17.25;16.25;;;;;-147.17;100.00;8437.53;4985539;28;51197;-57
2023/04/10 03:37:26;;;;;;;;;16.00;16.00;;;;;-147.17;100.00;6942.09;4998402;28;51215;-57
2023/04/10 03:39:52;;;;;;;;;15.50;14.75;;;;;-147.17;100.00;7939.00;4995444;28;51341;-57
2023/04/10 03:42:17;;;;;;;;;15.50;15.00;;;;;-147.17;100.00;7689.75;4992178;28;52171;-58
2023/04/10 03:44:42;;;;;;;;;17.50;17.00;;;;;-147.17;100.00;7440.50;4992857;28;55399;-58
2023/04/10 03:47:07;;;;;;;;;14.25;13.75;;;;;-147.17;100.00;6942.09;4991664;28;51708;-58
2023/04/10 03:49:33;;;;;;;;;14.75;14.75;;;;;-147.17;100.00;7191.28;4993840;28;51425;-58
2023/04/10 03:51:58;;;;;;;;;13.75;13.75;;;;;-147.17;100.00;6942.09;5000606;28;61689;-58
2023/04/10 03:54:23;;;;;;;;;15.00;14.75;;;;;-147.17;100.00;5945.44;4990720;28;51176;-58
2023/04/10 03:56:49;;;;;;;;;13.50;13.50;;;;;-147.17;100.00;5447.22;4992742;28;59059;-56
2023/04/10 03:59:14;;;;;;;;;16.25;15.25;;;;;-147.17;100.00;4949.06;4992943;28;50895;-56
2023/04/10 04:01:40;;;;;;;;;13.75;12.00;;;;;-147.17;100.00;5198.13;4990022;28;51151;-57
2023/04/10 04:04:05;;;;;;;;;16.25;16.25;;;;;-147.17;100.00;2708.13;4995643;28;51124;-58
2023/04/10 04:06:31;;;;;;;;;16.00;15.25;;;;;-147.17;100.00;3703.94;4992624;28;50998;-57
2023/04/10 04:08:56;;;;;;;;;15.00;14.50;;;;;-147.17;100.00;3703.94;4990551;28;51341;-58
2023/04/10 04:11:21;;;;;;;;;14.50;13.50;;;;;-147.17;100.00;3703.94;4987632;28;51442;-58
2023/04/10 04:13:47;;;;;;;;;15.50;14.75;;;;;-147.17;100.00;3454.97;4990410;28;50981;-57
2023/04/10 04:16:12;;;;;;;;;20.00;18.75;;;;;-147.17;100.00;3703.94;4992128;28;51215;-57
2023/04/10 04:18:37;;;;;;;;;15.50;15.50;;;;;-147.17;100.00;3703.94;4991084;28;51998;-56
2023/04/10 04:21:03;;;;;;;;;16.00;16.00;;;;;-147.17;100.00;3206.00;4991710;28;52733;-57
2023/04/10 04:23:28;;;;;;;;;16.50;15.25;;;;;-147.17;100.00;1961.44;4992334;28;51215;-57
2023/04/10 04:25:55;;;;;;;;;14.00;13.00;;;;;-147.17;100.00;966.09;4995272;28;51243;-57
2023/04/10 04:28:21;;;;;;;;;17.00;16.25;;;;;-147.17;100.00;1463.72;5004748;28;51250;-57
2023/04/10 04:30:47;;;;;;;;;16.75;16.00;;;;;-147.17;100.00;1463.72;4997492;28;51904;-56
2023/04/10 04:33:12;;;;;;;;;14.75;14.75;;;;;-147.17;100.00;1961.44;4986693;28;51091;-58
2023/04/10 04:35:37;;;;;;;;;14.00;13.75;;;;;-147.17;100.00;966.09;5003281;28;50990;-56
2023/04/10 04:38:03;;;;;;;;;16.25;15.50;;;;;-147.17;100.00;966.09;4989682;28;51049;-58
2023/04/10 04:40:28;;;;;;;;;15.75;14.75;;;;;-147.17;100.00;1214.91;4981117;28;53703;-57
2023/04/10 04:42:53;;;;;;;;;16.75;16.25;;;;;-147.17;100.00;1214.91;4990561;28;50974;-57
2023/04/10 04:45:20;;;;;;;;;15.00;13.50;;;;;-147.17;100.00;1463.72;4993249;28;51759;-59
2023/04/10 04:47:46;;;;;;;;;19.25;18.50;;;;;-147.17;100.00;1214.91;4996863;28;51319;-57
2023/04/10 04:50:11;;;;;;;;;17.75;15.75;;;;;-147.17;100.00;717.28;4984870;28;52358;-56
2023/04/10 04:52:36;;;;;;;;;17.25;15.75;;;;;-147.17;100.00;717.28;4983868;28;51125;-57
2023/04/10 04:55:02;;;;;;;;;15.75;14.75;;;;;-147.17;100.00;717.28;4994580;28;51047;-58
2023/04/10 04:57:27;;;;;;;;;13.75;13.25;;;;;-147.17;100.00;1214.91;4973723;28;51308;-56
2023/04/10 04:59:53;;;;;;;;;13.50;13.00;;;;;-147.17;100.00;966.09;4991327;28;51870;-56
2023/04/10 05:02:21;;;;;;;;;15.00;13.25;;;;;-147.17;100.00;219.72;4991396;28;51059;-57
2023/04/10 05:04:46;;;;;;;;;13.50;13.50;;;;;-147.17;100.00;966.09;4987280;28;50990;-57
2023/04/10 05:07:11;;;;;;;;;14.75;14.25;;;;;-147.17;100.00;219.72;4989517;28;51234;-55
2023/04/10 05:09:37;;;;;;;;;16.75;15.25;;;;;-147.17;100.00;-277.75;4992021;28;50950;-55
2023/04/10 05:12:02;;;;;;;;;17.25;16.50;;;;;-147.17;100.00;-277.75;4994458;28;51037;-56
2023/04/10 05:14:28;;;;;;;;;17.00;16.00;;;;;-147.17;100.00;-277.75;5003737;28;55220;-55
2023/04/10 05:16:53;;;;;;;;;15.50;15.50;;;;;-147.17;100.00;-277.75;4990184;28;51287;-55
2023/04/10 05:19:18;;;;;;;;;10.75;10.75;;;;;-147.17;100.00;-1023.88;5004758;28;51438;-58
2023/04/10 05:21:44;;;;;;;;;17.00;15.00;;;;;-147.17;100.00;468.50;4991389;28;51011;-57
2023/04/10 05:24:09;;;;;;;;;16.00;16.00;;;;;-147.17;100.00;-277.75;4992795;28;51193;-56
2023/04/10 05:26:34;;;;;;;;;17.25;16.50;;;;;-147.17;100.00;-775.19;4991579;28;50891;-55
2023/04/10 05:29:00;;;;;;;;;15.50;15.25;;;;;-147.17;100.00;-2018.47;4993112;28;52064;-57
2023/04/10 05:31:25;;;;;;;;;23.00;20.75;;;;;-147.17;100.00;-1272.53;4987560;28;51066;-57
2023/04/10 05:33:50;;;;;;;;;20.00;18.75;;;;;-147.17;100.00;-1769.84;4990895;28;51129;-57
2023/04/10 05:36:17;;;;;;;;;19.75;19.25;;;;;-147.17;100.00;-1769.84;4982151;28;51143;-56
2023/04/10 05:38:42;;;;;;;;;20.00;18.50;;;;;-147.17;100.00;-1769.84;4989230;28;53892;-58
2023/04/10 05:41:08;;;;;;;;;20.25;19.75;;;;;-147.17;100.00;-1769.84;4995987;28;51065;-57
2023/04/10 05:43:33;;;;;;;;;22.25;20.75;;;;;-147.17;100.00;-1769.84;4991617;28;51351;-56
2023/04/10 05:46:00;;;;;;;;;20.50;17.50;;;;;-147.17;100.00;-1521.19;4986528;28;51256;-57
2023/04/10 05:48:25;;;;;;;;;22.75;21.00;;;;;-147.17;100.00;-1769.84;4992762;28;52012;-57
2023/04/10 05:50:51;;;;;;;;;19.75;18.25;;;;;-147.17;100.00;-1521.19;4989776;28;51087;-57
2023/04/10 05:53:18;;;;;;;;;18.75;16.50;;;;;-147.17;100.00;-1521.19;4990434;28;51341;-56
2023/04/10 05:55:43;;;;;;;;;23.25;22.50;;;;;-147.17;100.00;-1521.19;4992096;28;51736;-56
2023/04/10 05:58:09;;;;;;;;;18.00;17.50;;;;;-147.17;100.00;-1272.53;4990910;28;51104;-58
2023/04/10 06:00:35;;;;;;;;;24.00;21.50;;;;;-147.17;100.00;-2018.47;4991785;28;51038;-57
2023/04/10 06:03:02;;;;;;;;;21.75;20.25;;;;;-147.17;100.00;-1272.53;4992986;28;51815;-57
2023/04/10 06:05:27;;;;;;;;;16.50;14.75;;;;;-147.17;100.00;-1769.84;4979890;28;51171;-57
2023/04/10 06:07:53;;;;;;;;;17.75;17.75;;;;;-147.17;100.00;-2515.66;4983652;28;52784;-56
2023/04/10 06:10:18;;;;;;;;;15.25;14.50;;;;;-147.17;100.00;-2267.06;4988844;28;51092;-57
2023/04/10 06:12:44;;;;;;;;;13.50;13.50;;;;;-147.17;100.00;-2515.66;4986111;28;51128;-57
2023/04/10 06:15:09;;;;;;;;;15.50;15.25;;;;;-147.17;100.00;-2515.66;4985121;28;51488;-57
2023/04/10 06:17:42;;;;;;;;;18.25;17.00;;;;;-147.17;100.00;-3261.34;4980266;28;52863;-56
2023/04/10 06:20:08;;;;;;;;;19.50;18.00;;;;;-147.17;100.00;-3012.78;4985649;28;51076;-57
2023/04/10 06:22:33;;;;;;;;;19.25;16.75;;;;;-147.17;100.00;-3012.78;4975846;28;51121;-57
2023/04/10 06:24:59;;;;;;;;;17.50;15.00;;;;;-147.17;100.00;-3261.34;4991832;28;51301;-57
2023/04/10 06:27:24;;;;;;;;;19.50;18.75;;;;;-147.17;100.00;-2515.66;4996953;28;52535;-56
2023/04/10 06:29:50;;;;;;;;;16.50;16.25;;;;;-147.17;100.00;-2267.06;4992721;28;51164;-57
2023/04/10 06:32:15;;;;;;;;;19.00;17.25;;;;;-147.17;100.00;-2764.22;4994155;28;51129;-54
2023/04/10 06:34:40;;;;;;;;;21.25;18.25;;;;;-147.17;100.00;-2515.66;4985008;28;51303;-57
2023/04/10 06:37:06;;;;;;;;;18.50;18.25;;;;;-147.17;100.00;-3758.38;4982423;28;52060;-56
2023/04/10 06:39:31;;;;;;;;;20.50;20.00;;;;;-147.17;100.00;-3261.34;4993564;28;51052;-55
2023/04/10 06:41:56;;;;;;;;;19.50;19.50;;;;;-147.17;100.00;-4006.88;4993717;28;51152;-55
2023/04/10 06:44:22;;;;;;;;;17.00;16.00;;;;;-147.17;100.00;-4006.88;4994532;28;50855;-56
2023/04/10 06:46:47;;;;;;;;;17.00;16.50;;;;;-147.17;100.00;-4752.25;4993804;28;51137;-56
2023/04/10 06:49:12;;;;;;;;;16.50;15.75;;;;;-147.17;100.00;-4752.25;4992688;28;51175;-54
2023/04/10 06:51:38;;;;;;;;;17.00;17.00;;;;;-147.17;100.00;-4752.25;4993287;28;51635;-57
2023/04/10 06:54:03;;;;;;;;;19.25;19.25;;;;;-147.17;100.00;-4255.34;4990865;28;51036;-57
2023/04/10 06:56:28;;;;;;;;;16.00;15.00;;;;;-147.17;100.00;-4255.34;4993670;28;51029;-55
2023/04/10 06:58:54;;;;;;;;;19.75;17.75;;;;;-147.17;100.00;-4006.88;5002920;28;51281;-56
2023/04/10 07:01:19;;;;;;;;;17.75;16.00;;;;;-147.17;100.00;-4255.34;5013320;28;51030;-56
2023/04/10 07:03:45;;;;;;;;;19.25;16.75;;;;;-147.17;100.00;-4255.34;4993590;28;51950;-58
2023/04/10 07:06:11;;;;;;;;;13.75;13.50;;;;;-147.17;100.00;-3758.38;4993415;28;52006;-57
2023/04/10 07:08:36;;;;;;;;;16.25;16.25;;;;;-147.17;100.00;-3758.38;4992362;28;51284;-55
2023/04/10 07:11:01;;;;;;;;;15.25;13.00;;;;;-147.17;100.00;-4006.88;4990898;28;51130;-57
2023/04/10 07:13:26;;;;;;;;;14.00;13.50;;;;;-147.17;100.00;-3758.38;4980979;28;51139;-57
2023/04/10 07:15:52;;;;;;;;;22.75;19.50;;;;;-147.17;100.00;-3758.38;4982257;28;50961;-57
2023/04/10 07:18:17;;;;;;;;;18.75;18.50;;;;;-147.17;100.00;-3509.84;5005408;28;51061;-56
2023/04/10 07:20:43;;;;;;;;;20.50;19.75;;;;;-147.17;100.00;-3012.78;4991747;28;51507;-57
2023/04/10 07:23:08;;;;;;;;;18.50;18.00;;;;;-147.17;100.00;-2267.06;4992439;28;51416;-60
2023/04/10 07:25:34;;;;;;;;;16.25;16.25;;;;;-147.17;100.00;-2764.22;4993520;28;51789;-56
2023/04/10 07:27:59;;;;;;;;;18.25;17.50;;;;;-147.17;100.00;-2267.06;4987331;28;51337;-54
2023/04/10 07:30:24;;;;;;;;;15.75;15.50;;;;;-147.17;100.00;-1769.84;4992997;28;51449;-56
2023/04/10 07:32:50;;;;;;;;;19.00;18.25;;;;;-147.17;100.00;-775.19;4991972;28;51118;-56
2023/04/10 07:35:15;;;;;;;;;17.75;17.75;;;;;-147.17;100.00;-526.47;4990962;28;52013;-56
2023/04/10 07:37:42;;;;;;;;;17.50;17.00;;;;;-147.17;100.00;-29.03;4992170;28;51075;-56
2023/04/10 07:40:08;;;;;;;;;14.00;13.75;;;;;-147.17;100.00;-775.19;4991568;28;51102;-57
2023/04/10 07:42:34;;;;;;;;;17.00;16.25;;;;;-147.17;100.00;-775.19;4971381;28;52060;-56
2023/04/10 07:44:59;;;;;;;;;16.00;15.75;;;;;-147.17;100.00;-1023.88;4988856;28;51185;-56
2023/04/10 07:47:25;;;;;;;;;17.75;17.75;;;;;-147.17;100.00;468.50;4992093;28;51120;-56
2023/04/10 07:49:50;;;;;;;;;15.25;15.25;;;;;-147.17;100.00;1712.56;4991927;28;51324;-57
2023/04/10 07:52:15;;;;;;;;;17.00;15.00;;;;;-147.17;100.00;2459.22;4993429;28;51338;-56
2023/04/10 07:54:41;;;;;;;;;18.25;18.25;;;;;-147.17;100.00;3206.00;4998830;28;60377;-56
2023/04/10 07:57:06;;;;;;;;;13.25;13.00;;;;;-147.17;100.00;5945.44;4992854;28;51068;-56
2023/04/10 07:59:31;;;;;;;;;16.75;16.75;;;;;-147.17;100.00;6443.75;4992070;28;51118;-57
2023/04/10 08:01:57;;;;;;;;;17.00;16.00;;;;;-147.17;100.00;8437.53;4982058;28;51043;-55
2023/04/10 08:04:23;;;;;;;;;14.75;14.50;;;;;-147.17;100.00;6692.91;4991716;28;51447;-56
2023/04/10 08:06:50;;;;;;;;;17.00;15.75;;;;;-147.17;100.00;6692.91;4993283;28;51219;-56
2023/04/10 08:09:15;;;;;;;;;13.75;13.00;;;;;-147.17;100.00;8437.53;4993478;28;51058;-57
2023/04/10 08:11:41;;;;;;;;;17.25;16.75;;;;;-147.17;100.00;8936.16;4993017;28;51084;-57
2023/04/10 08:14:06;;;;;;;;;17.25;15.25;;;;;-147.17;100.00;11679.66;4991038;28;52150;-55
2023/04/10 08:16:34;;;;;;;;;16.50;16.50;;;;;-147.17;100.00;14175.44;4991771;28;51318;-58
2023/04/10 08:19:01;;;;;;;;;15.00;14.25;;;;;-147.17;100.00;13176.94;4997340;28;50986;-58
2023/04/10 08:21:28;;;;;;;;;17.25;17.25;;;;;-147.17;100.00;14674.81;4992395;28;51402;-57
2023/04/10 08:23:56;;;;;;;;;16.00;16.00;;;;;-147.17;100.00;14175.44;4990369;28;51307;-58
2023/04/10 08:26:21;;;;;;;;;15.50;15.00;;;;;-147.17;100.00;14924.50;4991820;28;52028;-57
2023/04/10 08:28:51;;;;;;;;;15.75;15.75;;;;;-147.17;100.00;15673.69;4999859;28;51619;-57
2023/04/10 08:31:17;;;;;;;;;17.25;17.00;;;;;-147.17;100.00;15923.47;4990246;28;51144;-57
2023/04/10 08:33:43;;;;;;;;;14.00;14.00;;;;;-147.17;100.00;17172.50;4991842;28;52246;-57
2023/04/10 08:36:09;;;;;;;;;15.50;15.25;;;;;-147.17;100.00;17172.50;4978818;28;51057;-58
2023/04/10 08:38:34;;;;;;;;;16.00;15.75;;;;;-147.17;100.00;16922.66;4995100;28;51223;-57
2023/04/10 08:41:00;;;;;;;;;14.00;14.00;;;;;-147.17;100.00;17422.38;4992264;28;50999;-57
2023/04/10 08:43:26;;;;;;;;;16.25;15.50;;;;;-147.17;100.00;17672.25;4997982;28;51168;-56
2023/04/10 08:45:52;;;;;;;;;12.50;12.50;;;;;-147.17;100.00;20421.94;5001562;28;51142;-57
2023/04/10 08:48:19;;;;;;;;;87.67;79.00;;;;;-147.17;100.00;21422.31;4991938;28;51120;-58
2023/04/10 08:50:46;;;;;;;;;16.00;15.75;;;;;-147.17;100.00;21172.19;5010696;28;51259;-57
2023/04/10 08:53:13;;;;;;;;;11.50;11.50;;;;;-147.17;100.00;22172.75;4988274;28;51926;-55
2023/04/10 08:55:40;;;;;;;;;15.75;13.75;;;;;-147.17;100.00;20922.09;5000198;28;51138;-56
2023/04/10 08:58:06;;;;;;;;;12.00;11.00;;;;;-147.17;100.00;20171.88;4992158;28;51168;-56
2023/04/10 09:00:33;;;;;;;;;14.25;12.75;;;;;-147.17;100.00;20922.09;4991096;28;51388;-56
2023/04/10 09:03:03;;;;;;;;;13.00;12.00;;;;;-147.17;100.00;20421.94;4990556;28;52239;-57
2023/04/10 09:05:29;;;;;;;;;11.25;11.25;;;;;-147.17;100.00;18921.88;4996926;28;51076;-57
2023/04/10 09:07:55;;;;;;;;;11.75;11.75;;;;;-147.17;100.00;16672.84;5012543;28;51099;-56
2023/04/10 09:10:21;;;;;;;;;11.75;11.00;;;;;-147.17;100.00;14425.13;4992887;28;51283;-58
2023/04/10 09:12:47;;;;;;;;;13.75;13.25;;;;;-147.17;100.00;15174.22;4989839;28;51324;-57
2023/04/10 09:15:14;;;;;;;;;12.25;12.25;;;;;-147.17;100.00;15174.22;4991868;28;51011;-57
2023/04/10 09:18:02;;;;;;;;;13.00;12.00;;;;;-147.17;100.00;14425.13;4989779;28;51048;-57
2023/04/10 09:20:30;;;;;;;;;13.75;12.25;;;;;-147.17;100.00;15423.94;4996184;28;51393;-57
2023/04/10 09:22:56;;;;;;;;;11.75;11.50;;;;;-147.17;100.00;14425.13;4990214;28;51285;-57
2023/04/10 09:25:32;;;;;;;;;15.50;14.50;;;;;-147.17;100.00;13925.81;4999255;28;51081;-56
2023/04/10 09:28:08;;;;;;;;;12.75;11.00;;;;;-147.17;100.00;12927.34;4985462;28;51071;-58
2023/04/10 09:30:35;;;;;;;;;12.75;11.75;;;;;-147.17;100.00;13176.94;5006334;28;51089;-58
2023/04/10 09:33:01;;;;;;;;;12.50;11.00;;;;;-147.17;100.00;13925.81;4985062;28;52337;-57
2023/04/10 09:35:36;;;;;;;;;12.00;11.75;;;;;-147.17;100.00;14924.50;4991236;28;51177;-57
2023/04/10 09:38:16;;;;;;;;;12.00;11.00;;;;;-147.17;100.00;14674.81;4989649;28;51135;-59
2023/04/10 09:40:41;;;;;;;;;12.25;12.25;;;;;-147.17;100.00;14175.44;4990885;28;51241;-59
2023/04/10 09:43:22;;;;;;;;;13.25;13.25;;;;;-147.17;100.00;12927.34;4982930;28;52763;-58
2023/04/10 09:45:50;;;;;;;;;15.00;13.75;;;;;-147.17;100.00;11929.16;4991085;28;51061;-58
2023/04/10 09:48:16;;;;;;;;;31.75;27.00;;;;;-147.17;100.00;12927.34;4987925;28;51666;-58
2023/04/10 09:50:47;;;;;;;;;13.00;13.00;;;;;-147.17;100.00;14425.13;4977578;28;51093;-58
2023/04/10 09:53:15;;;;;;;;;13.00;13.00;;;;;-147.17;100.00;14175.44;4990141;28;51840;-58
2023/04/10 09:55:42;;;;;;;;;14.75;13.75;;;;;-147.17;100.00;14674.81;4997817;28;51091;-57
2023/04/10 09:58:09;;;;;;;;;12.25;11.50;;;;;-147.17;100.00;16173.25;4987189;28;51166;-58
2023/04/10 10:00:45;;;;;;;;;12.00;11.00;;;;;-147.17;100.00;16173.25;4995389;28;51176;-58
2023/04/10 10:03:14;;;;;;;;;14.00;13.25;;;;;-147.17;100.00;16173.25;4989174;28;51186;-58
2023/04/10 10:05:42;;;;;;;;;14.00;13.75;;;;;-147.17;100.00;17172.50;4995241;28;51140;-57
2023/04/10 10:08:10;;;;;;;;;16.00;15.00;;;;;-147.17;100.00;17672.25;4993578;28;51049;-57
2023/04/10 10:10:44;;;;;;;;;12.25;12.25;;;;;-147.17;100.00;20171.88;4985694;28;51011;-57
2023/04/10 10:13:16;;;;;;;;;13.00;13.00;;;;;-147.17;100.00;19421.84;4983089;28;53454;-58
2023/04/10 10:15:48;;;;;;;;;11.75;11.50;;;;;-147.17;100.00;20672.00;4991407;28;50839;-59
2023/04/10 10:18:40;;;;;;;;;11.25;11.00;;;;;-147.17;100.00;22422.94;4986457;28;51186;-59
2023/04/10 10:21:07;;;;;;;;;13.00;12.25;;;;;-147.17;100.00;23423.81;4972236;28;51431;-58
2023/04/10 10:23:34;;;;;;;;;12.00;11.00;;;;;-147.17;100.00;22172.75;4993702;28;52586;-58
2023/04/10 10:26:00;;;;;;;;;10.00;10.00;;;;;-147.17;100.00;21422.31;4975613;28;51353;-58
2023/04/10 10:28:27;;;;;;;;;11.00;11.00;;;;;-147.17;100.00;21422.31;4985408;28;51341;-57
2023/04/10 10:30:54;;;;;;;;;10.00;9.00;;;;;-147.17;100.00;21172.19;4988820;28;51259;-56
2023/04/10 10:33:19;;;;;;;;;13.00;12.75;;;;;-147.17;100.00;21672.44;4991443;28;51136;-58
2023/04/10 10:35:45;;;;;;;;;11.00;10.75;;;;;-147.17;100.00;23173.59;4981259;28;51255;-58
2023/04/10 10:38:12;;;;;;;;;9.00;8.75;;;;;-147.17;100.00;24174.66;4984681;28;51194;-58
2023/04/10 10:40:44;;;;;;;;;11.50;10.75;;;;;-147.17;100.00;25447.88;4990375;28;51396;-56
2023/04/10 10:43:18;;;;;;;;;11.00;10.50;;;;;-147.17;100.00;26602.16;4990158;28;51889;-57
2023/04/10 10:46:11;;;;;;;;;10.50;10.50;;;;;-147.17;100.00;26377.16;4993593;28;50931;-56
2023/04/10 10:48:36;;;;;;;;;9.00;9.00;;;;;-147.17;100.00;25987.81;4990527;28;50974;-57
2023/04/10 10:51:03;;;;;;;;;11.25;11.25;;;;;-147.17;100.00;24174.66;4992242;28;51821;-58
2023/04/10 10:53:36;;;;;;;;;9.00;9.00;;;;;-147.17;100.00;25426.38;4990424;28;52870;-57
2023/04/10 10:56:17;;;;;;;;;12.00;11.00;;;;;-147.17;100.00;24174.66;4984763;28;50923;-59
2023/04/10 10:58:47;;;;;;;;;8.00;8.00;;;;;-147.17;100.00;24675.28;4990354;28;51037;-58